Time;durP1;ratioP1;P1;durP2;ratioP2;P2;SDS_P1;SDS_P2;PMS_P1;PMS_P2;Temp;Humidity;BMP_temperature;BMP_pressure;BME280_temperature;BME280_humidity;BME280_pressure;Samples;Min_cycle;Max_cycle;Signal;HPM_P1;HPM_P2
2023/03/31 00:01:04;;;;;;;;;;;;;;;9.21;89.34;100351.63;4946830;28;20373;-73
2023/03/31 00:03:37;;;;;;;;;;;;;;;9.18;89.48;100354.84;4962364;28;20038;-73
2023/03/31 00:06:04;;;;;;;;;;;;;;;9.25;89.15;100350.03;4929928;28;19944;-73
2023/03/31 00:08:34;;;;;;;;;;;;;;;9.27;88.80;100358.56;4943180;28;20698;-73
2023/03/31 00:11:03;;;;;;;;;;;;;;;9.37;87.11;100353.22;4933153;28;20357;-73
2023/03/31 00:13:30;;;;;;;;;;;;;;;9.43;86.50;100352.16;4961293;28;20016;-74
2023/03/31 00:16:00;;;;;;;;;;;;;;;9.32;87.64;100350.56;4942765;28;19955;-72
2023/03/31 00:18:29;;;;;;;;;;;;;;;9.29;87.54;100353.78;4961982;28;20023;-73
2023/03/31 00:21:04;;;;;;;;;;;;;;;9.39;86.69;100353.75;4944204;28;20796;-74
2023/03/31 00:23:30;;;;;;;;;;;;;;;9.27;87.28;100342.53;4953144;28;19943;-73
2023/03/31 00:25:55;;;;;;;;;;;;;;;9.36;86.69;100351.63;4977003;28;20294;-73
2023/03/31 00:28:21;;;;;;;;;;;;;;;9.29;87.26;100337.75;4962165;28;19980;-73
2023/03/31 00:30:47;;;;;;;;;;;;;;;9.26;87.47;100340.94;4953457;28;19966;-74
2023/03/31 00:33:13;;;;;;;;;;;;;;;9.28;86.83;100338.81;4946220;28;19934;-74
2023/03/31 00:35:39;;;;;;;;;;;;;;;9.27;86.74;100337.19;4959123;28;19988;-74
2023/03/31 00:38:07;;;;;;;;;;;;;;;9.36;85.31;100330.25;4929812;28;19953;-74
2023/03/31 00:40:35;;;;;;;;;;;;;;;9.44;84.60;100316.31;4960694;28;19966;-74
2023/03/31 00:43:02;;;;;;;;;;;;;;;9.35;85.88;100315.28;4951928;28;19940;-74
2023/03/31 00:45:28;;;;;;;;;;;;;;;9.30;85.43;100320.63;4957437;28;19949;-73
2023/03/31 00:48:09;;;;;;;;;;;;;;;9.39;84.72;100319.00;4956094;28;20407;-73
2023/03/31 00:50:39;;;;;;;;;;;;;;;9.46;84.14;100318.72;4941835;28;19953;-73
2023/03/31 00:53:09;;;;;;;;;;;;;;;9.50;83.46;100309.88;4958376;28;19967;-73
2023/03/31 00:55:39;;;;;;;;;;;;;;;9.45;84.16;100309.91;4944618;28;19987;-73
2023/03/31 00:58:05;;;;;;;;;;;;;;;9.45;83.83;100307.22;4943841;28;19933;-73
2023/03/31 01:00:31;;;;;;;;;;;;;;;9.48;83.14;100295.19;4943124;28;19955;-73
2023/03/31 01:02:58;;;;;;;;;;;;;;;9.54;82.53;100297.56;4944195;28;19998;-73
2023/03/31 01:05:26;;;;;;;;;;;;;;;9.50;82.77;100299.19;4948182;28;19946;-73
2023/03/31 01:07:53;;;;;;;;;;;;;;;9.40;84.20;100293.88;4951095;28;19941;-73
2023/03/31 01:10:19;;;;;;;;;;;;;;;9.35;84.00;100285.91;4941846;28;20060;-73
2023/03/31 01:12:46;;;;;;;;;;;;;;;9.40;83.16;100283.19;4955664;28;20463;-73
2023/03/31 01:15:12;;;;;;;;;;;;;;;9.44;83.32;100276.22;4939441;28;19965;-73
2023/03/31 01:17:39;;;;;;;;;;;;;;;9.33;83.95;100277.31;4941102;28;20413;-73
2023/03/31 01:20:31;;;;;;;;;;;;;;;9.48;82.55;100269.28;4957918;28;20050;-74
2023/03/31 01:23:15;;;;;;;;;;;;;;;9.39;83.68;100270.09;4938723;28;19935;-73
2023/03/31 01:25:42;;;;;;;;;;;;;;;9.38;83.64;100263.94;4983299;28;19953;-73
2023/03/31 01:28:14;;;;;;;;;;;;;;;9.26;84.21;100272.28;4945634;28;19934;-74
2023/03/31 01:30:59;;;;;;;;;;;;;;;9.25;84.08;100269.88;4942923;28;20454;-73
2023/03/31 01:33:28;;;;;;;;;;;;;;;9.31;83.57;100266.13;4942558;28;19936;-74
2023/03/31 01:35:56;;;;;;;;;;;;;;;9.30;83.45;100267.19;4954776;28;19949;-73
2023/03/31 01:38:22;;;;;;;;;;;;;;;9.26;83.85;100260.78;4957320;28;19939;-72
2023/03/31 01:40:54;;;;;;;;;;;;;;;9.20;84.04;100251.19;4954354;28;19964;-74
2023/03/31 01:43:23;;;;;;;;;;;;;;;9.06;84.52;100239.47;4953638;28;19938;-75
2023/03/31 01:46:08;;;;;;;;;;;;;;;8.87;85.21;100240.03;4937349;28;19991;-74
2023/03/31 01:48:35;;;;;;;;;;;;;;;8.85;85.44;100246.72;4943655;28;19941;-73
2023/03/31 01:51:04;;;;;;;;;;;;;;;8.80;85.55;100244.06;4957044;28;19956;-74
2023/03/31 01:53:30;;;;;;;;;;;;;;;8.81;85.77;100249.16;4959529;28;19982;-73
2023/03/31 01:56:14;;;;;;;;;;;;;;;8.82;85.81;100240.06;4960443;28;20430;-73
2023/03/31 01:58:43;;;;;;;;;;;;;;;8.82;85.67;100233.94;4963198;28;19945;-73
2023/03/31 02:01:20;;;;;;;;;;;;;;;8.85;85.55;100236.84;4941443;28;19957;-75
2023/03/31 02:03:50;;;;;;;;;;;;;;;8.82;86.05;100247.28;4942757;28;20410;-73
2023/03/31 02:06:20;;;;;;;;;;;;;;;8.79;86.26;100245.13;4930580;28;20520;-72
2023/03/31 02:08:53;;;;;;;;;;;;;;;8.86;85.93;100235.78;4929487;28;19944;-75
2023/03/31 02:11:20;;;;;;;;;;;;;;;8.79;86.31;100227.25;4940337;28;19955;-73
2023/03/31 02:13:49;;;;;;;;;;;;;;;8.70;86.52;100221.66;4977769;28;19983;-73
2023/03/31 02:16:17;;;;;;;;;;;;;;;8.61;87.01;100211.81;4975336;28;19953;-73
2023/03/31 02:18:45;;;;;;;;;;;;;;;8.55;87.10;100212.88;4941247;28;20023;-74
2023/03/31 02:21:13;;;;;;;;;;;;;;;8.50;87.16;100215.53;4943311;28;19956;-73
2023/03/31 02:23:39;;;;;;;;;;;;;;;8.43;87.85;100213.16;4962688;28;20013;-73
2023/03/31 02:26:16;;;;;;;;;;;;;;;8.51;87.32;100203.78;4939677;28;19934;-74
2023/03/31 02:28:42;;;;;;;;;;;;;;;8.57;87.30;100194.72;4942275;28;19940;-74
2023/03/31 02:31:11;;;;;;;;;;;;;;;8.62;87.19;100208.06;4939038;28;19956;-74
2023/03/31 02:33:36;;;;;;;;;;;;;;;8.60;87.17;100199.50;4943177;28;20455;-73
2023/03/31 02:36:03;;;;;;;;;;;;;;;8.50;87.54;100188.84;4955745;28;19960;-73
2023/03/31 02:38:34;;;;;;;;;;;;;;;8.47;87.69;100195.53;4962433;28;19955;-72
2023/03/31 02:41:00;;;;;;;;;;;;;;;8.44;87.77;100196.06;4953945;28;20501;-73
2023/03/31 02:43:26;;;;;;;;;;;;;;;8.41;87.73;100199.28;4960959;28;20023;-72
2023/03/31 02:45:52;;;;;;;;;;;;;;;8.34;87.97;100191.53;4953418;28;19945;-73
2023/03/31 02:48:18;;;;;;;;;;;;;;;8.23;88.05;100179.25;4962213;28;19943;-73
2023/03/31 02:50:58;;;;;;;;;;;;;;;8.16;88.45;100178.72;4965037;28;20811;-73
2023/03/31 02:53:37;;;;;;;;;;;;;;;8.08;88.86;100177.38;4946982;28;20948;-73
2023/03/31 02:56:22;;;;;;;;;;;;;;;8.07;88.92;100173.13;4956833;28;19948;-73
2023/03/31 02:59:00;;;;;;;;;;;;;;;8.01;89.09;100176.06;4924851;28;19937;-74
2023/03/31 03:01:27;;;;;;;;;;;;;;;8.00;89.16;100169.13;4964936;28;20756;-73
2023/03/31 03:04:08;;;;;;;;;;;;;;;7.97;89.42;100166.97;4962581;28;20039;-73
2023/03/31 03:06:52;;;;;;;;;;;;;;;7.95;89.25;100167.25;4947495;28;19949;-73
2023/03/31 03:09:45;;;;;;;;;;;;;;;7.87;89.38;100163.25;4954167;28;19956;-73
2023/03/31 03:12:24;;;;;;;;;;;;;;;7.89;89.54;100155.75;4945043;28;19945;-72
2023/03/31 03:15:06;;;;;;;;;;;;;;;7.87;89.46;100157.09;4950919;28;20342;-73
2023/03/31 03:17:43;;;;;;;;;;;;;;;7.93;89.52;100159.50;4961180;28;20018;-74
2023/03/31 03:20:09;;;;;;;;;;;;;;;7.92;89.46;100149.91;4963994;28;19958;-75
2023/03/31 03:22:36;;;;;;;;;;;;;;;7.90;89.36;100149.38;4964771;28;19984;-75
2023/03/31 03:25:03;;;;;;;;;;;;;;;7.81;89.83;100153.63;4942373;28;20383;-73
2023/03/31 03:27:29;;;;;;;;;;;;;;;7.79;89.88;100139.78;4939098;28;20361;-74
2023/03/31 03:29:54;;;;;;;;;;;;;;;7.72;90.08;100141.88;4927009;28;20045;-76
2023/03/31 03:32:20;;;;;;;;;;;;;;;7.72;90.30;100130.41;4976888;28;20414;-74
2023/03/31 03:34:46;;;;;;;;;;;;;;;7.75;89.91;100137.91;4954590;28;19929;-73
2023/03/31 03:37:11;;;;;;;;;;;;;;;7.72;89.88;100141.06;4967291;28;19982;-75
2023/03/31 03:39:37;;;;;;;;;;;;;;;7.77;89.96;100144.56;4960879;28;20374;-75
2023/03/31 03:42:05;;;;;;;;;;;;;;;7.82;90.19;100141.91;4939531;28;20018;-73
2023/03/31 03:44:30;;;;;;;;;;;;;;;7.82;89.78;100131.25;4975593;28;19948;-73
2023/03/31 03:46:56;;;;;;;;;;;;;;;7.84;89.80;100134.44;4963066;28;19990;-73
2023/03/31 03:49:21;;;;;;;;;;;;;;;7.86;89.78;100137.66;4966198;28;19999;-73
2023/03/31 03:51:47;;;;;;;;;;;;;;;7.87;89.69;100127.78;4948723;28;19934;-75
2023/03/31 03:54:12;;;;;;;;;;;;;;;7.87;90.02;100125.13;4960857;28;19935;-75
2023/03/31 03:56:38;;;;;;;;;;;;;;;7.85;90.11;100124.56;4941500;28;19961;-74
2023/03/31 03:59:03;;;;;;;;;;;;;;;7.84;90.26;100115.75;4961946;28;20466;-75
2023/03/31 04:01:29;;;;;;;;;;;;;;;7.85;89.97;100114.69;4964387;28;19957;-75
2023/03/31 04:03:54;;;;;;;;;;;;;;;7.88;90.23;100103.50;4960736;28;20036;-75
2023/03/31 04:06:20;;;;;;;;;;;;;;;7.89;90.04;100106.97;4958060;28;19937;-76
2023/03/31 04:08:45;;;;;;;;;;;;;;;7.85;90.30;100113.91;4959394;28;20367;-75
2023/03/31 04:11:18;;;;;;;;;;;;;;;7.80;90.20;100105.94;4929894;28;19949;-74
2023/03/31 04:13:44;;;;;;;;;;;;;;;7.71;90.53;100100.31;4962366;28;20376;-75
2023/03/31 04:16:10;;;;;;;;;;;;;;;7.71;90.89;100089.63;4933440;28;19957;-74
2023/03/31 04:18:41;;;;;;;;;;;;;;;7.77;90.96;100096.56;4974297;28;20002;-76
2023/03/31 04:21:11;;;;;;;;;;;;;;;7.84;90.94;100086.44;4957533;28;20029;-73
2023/03/31 04:23:41;;;;;;;;;;;;;;;7.96;90.58;100078.19;4962356;28;19939;-72
2023/03/31 04:26:08;;;;;;;;;;;;;;;8.01;90.64;100074.72;4945723;28;20050;-72
2023/03/31 04:28:34;;;;;;;;;;;;;;;8.19;90.14;100068.81;4965982;28;20028;-74
2023/03/31 04:31:00;;;;;;;;;;;;;;;8.18;90.05;100065.34;4953542;28;20020;-74
2023/03/31 04:33:25;;;;;;;;;;;;;;;8.22;89.86;100065.63;4957816;28;19941;-74
2023/03/31 04:35:51;;;;;;;;;;;;;;;8.27;89.93;100051.47;4958930;28;19959;-75
2023/03/31 04:38:18;;;;;;;;;;;;;;;8.41;89.57;100052.53;4958429;28;20335;-75
2023/03/31 04:40:47;;;;;;;;;;;;;;;8.49;89.47;100049.28;4942630;28;20001;-75
2023/03/31 04:43:13;;;;;;;;;;;;;;;8.57;89.19;100034.59;4947105;28;20024;-71
2023/03/31 04:45:39;;;;;;;;;;;;;;;8.62;88.94;100027.34;4952424;28;20022;-76
2023/03/31 04:48:04;;;;;;;;;;;;;;;8.67;88.81;100031.84;4943957;28;19940;-74
2023/03/31 04:50:30;;;;;;;;;;;;;;;8.69;88.74;100019.84;4945625;28;20025;-73
2023/03/31 04:52:55;;;;;;;;;;;;;;;8.69;89.07;100027.06;4941197;28;19941;-75
2023/03/31 04:55:21;;;;;;;;;;;;;;;8.56;89.03;100024.97;4959389;28;20075;-73
2023/03/31 04:57:46;;;;;;;;;;;;;;;8.43;89.69;100034.38;4946890;28;19942;-76
2023/03/31 05:00:13;;;;;;;;;;;;;;;8.49;89.86;100022.59;4970782;28;19985;-73
2023/03/31 05:02:38;;;;;;;;;;;;;;;8.63;89.13;100009.47;4939210;28;19959;-73
2023/03/31 05:05:04;;;;;;;;;;;;;;;8.63;88.99;99996.13;4958661;28;19944;-73
2023/03/31 05:07:30;;;;;;;;;;;;;;;8.71;88.42;100003.56;4941423;28;19963;-74
2023/03/31 05:09:55;;;;;;;;;;;;;;;8.76;88.31;100000.88;4959351;28;20026;-74
2023/03/31 05:12:21;;;;;;;;;;;;;;;8.81;88.08;100002.72;4940209;28;19948;-72
2023/03/31 05:14:49;;;;;;;;;;;;;;;8.85;87.82;99999.19;4960212;28;19933;-76
2023/03/31 05:17:16;;;;;;;;;;;;;;;8.87;87.57;99993.56;4963191;28;19945;-74
2023/03/31 05:19:42;;;;;;;;;;;;;;;8.92;87.34;99988.22;4947918;28;19964;-76
2023/03/31 05:22:08;;;;;;;;;;;;;;;8.97;87.12;99986.31;4929651;28;19939;-74
2023/03/31 05:24:33;;;;;;;;;;;;;;;8.98;86.83;99977.22;4965631;28;20036;-74
2023/03/31 05:26:59;;;;;;;;;;;;;;;8.98;86.88;99976.44;4945049;28;20305;-73
2023/03/31 05:29:25;;;;;;;;;;;;;;;9.01;86.34;99974.00;4977675;28;19932;-74
2023/03/31 05:31:52;;;;;;;;;;;;;;;8.96;86.76;99971.38;4957747;28;19959;-73
2023/03/31 05:34:18;;;;;;;;;;;;;;;8.98;86.80;99966.53;4961985;28;20438;-74
2023/03/31 05:36:43;;;;;;;;;;;;;;;9.00;86.60;99955.56;4948329;28;19959;-73
2023/03/31 05:39:09;;;;;;;;;;;;;;;8.98;86.44;99961.19;4944279;28;19934;-74
2023/03/31 05:41:34;;;;;;;;;;;;;;;9.01;86.30;99959.88;4957117;28;20037;-74
2023/03/31 05:44:00;;;;;;;;;;;;;;;9.00;86.43;99964.38;4958593;28;20427;-74
2023/03/31 05:46:26;;;;;;;;;;;;;;;9.05;86.17;99965.44;4960673;28;19934;-73
2023/03/31 05:48:52;;;;;;;;;;;;;;;9.02;86.39;99959.59;4961730;28;19937;-73
2023/03/31 05:51:17;;;;;;;;;;;;;;;9.06;86.15;99956.34;4942506;28;19953;-74
2023/03/31 05:53:43;;;;;;;;;;;;;;;9.13;85.45;99951.47;4927422;28;20026;-74
2023/03/31 05:56:09;;;;;;;;;;;;;;;9.12;85.57;99949.88;4959747;28;19959;-74
2023/03/31 05:58:35;;;;;;;;;;;;;;;9.08;85.72;99955.00;4963738;28;19941;-74
2023/03/31 06:01:04;;;;;;;;;;;;;;;9.08;85.91;99943.50;4959533;28;20022;-74
2023/03/31 06:03:31;;;;;;;;;;;;;;;9.06;86.18;99940.31;4956253;28;19936;-74
2023/03/31 06:05:56;;;;;;;;;;;;;;;9.09;85.76;99942.44;4942135;28;20420;-73
2023/03/31 06:08:21;;;;;;;;;;;;;;;9.15;85.59;99938.66;4943973;28;20055;-74
2023/03/31 06:10:47;;;;;;;;;;;;;;;9.20;85.55;99935.94;4964984;28;19960;-75
2023/03/31 06:13:12;;;;;;;;;;;;;;;9.22;85.67;99925.78;4980377;28;20029;-73
2023/03/31 06:15:38;;;;;;;;;;;;;;;9.25;85.52;99931.34;4967924;28;20442;-74
2023/03/31 06:18:06;;;;;;;;;;;;;;;9.25;85.07;99934.03;4944187;28;20021;-75
2023/03/31 06:20:31;;;;;;;;;;;;;;;9.31;84.98;99937.44;4961454;28;19952;-74
2023/03/31 06:22:57;;;;;;;;;;;;;;;9.34;84.84;99936.88;4960753;28;20533;-73
2023/03/31 06:25:23;;;;;;;;;;;;;;;9.42;84.91;99922.13;4961924;28;19938;-73
2023/03/31 06:27:51;;;;;;;;;;;;;;;9.41;84.82;99929.31;4962500;28;20072;-74
2023/03/31 06:30:16;;;;;;;;;;;;;;;9.48;84.76;99929.81;4955724;28;19952;-75
2023/03/31 06:32:42;;;;;;;;;;;;;;;9.50;84.06;99930.34;4956449;28;19939;-74
2023/03/31 06:35:07;;;;;;;;;;;;;;;9.60;83.87;99929.41;4959713;28;19997;-74
2023/03/31 06:37:33;;;;;;;;;;;;;;;9.53;83.73;99923.63;4967826;28;19992;-75
2023/03/31 06:39:58;;;;;;;;;;;;;;;9.53;84.07;99929.75;4957510;28;20041;-72
2023/03/31 06:42:24;;;;;;;;;;;;;;;9.57;84.31;99922.78;4938796;28;19941;-73
2023/03/31 06:44:49;;;;;;;;;;;;;;;9.58;84.13;99923.56;4965838;28;19946;-74
2023/03/31 06:47:15;;;;;;;;;;;;;;;9.58;84.19;99926.25;4965813;28;19992;-74
2023/03/31 06:49:40;;;;;;;;;;;;;;;9.68;83.68;99922.66;4952023;28;19963;-75
2023/03/31 06:52:05;;;;;;;;;;;;;;;9.73;83.62;99917.28;4976125;28;19948;-75
2023/03/31 06:54:31;;;;;;;;;;;;;;;9.80;83.21;99912.38;4942800;28;20022;-73
2023/03/31 06:56:57;;;;;;;;;;;;;;;9.85;83.62;99921.16;4946749;28;20103;-74
2023/03/31 06:59:22;;;;;;;;;;;;;;;9.84;83.17;99913.41;4963877;28;19942;-73
2023/03/31 07:01:49;;;;;;;;;;;;;;;9.94;82.76;99909.81;4961970;28;19946;-73
2023/03/31 07:04:14;;;;;;;;;;;;;;;10.01;82.61;99911.06;4958000;28;19944;-76
2023/03/31 07:06:40;;;;;;;;;;;;;;;10.02;82.40;99909.97;4965577;28;19945;-74
2023/03/31 07:09:06;;;;;;;;;;;;;;;10.00;82.17;99901.44;4938659;28;19944;-74
2023/03/31 07:11:31;;;;;;;;;;;;;;;9.92;82.51;99910.09;4975566;28;19961;-73
2023/03/31 07:13:57;;;;;;;;;;;;;;;10.01;82.29;99897.69;4965136;28;19939;-73
2023/03/31 07:16:22;;;;;;;;;;;;;;;10.13;82.10;99906.09;4960789;28;19962;-74
2023/03/31 07:18:49;;;;;;;;;;;;;;;10.09;82.32;99899.75;4963687;28;19947;-74
2023/03/31 07:21:17;;;;;;;;;;;;;;;10.24;82.11;99895.31;4942088;28;19948;-74
2023/03/31 07:23:42;;;;;;;;;;;;;;;10.27;82.14;99897.41;4961289;28;19976;-73
2023/03/31 07:26:11;;;;;;;;;;;;;;;10.36;81.67;99893.81;4950913;28;19971;-73
2023/03/31 07:28:37;;;;;;;;;;;;;;;10.42;81.84;99894.50;4962929;28;19956;-73
2023/03/31 07:31:09;;;;;;;;;;;;;;;10.48;81.08;99889.88;4965568;28;19956;-74
2023/03/31 07:33:34;;;;;;;;;;;;;;;10.41;80.84;99884.91;4976968;28;20314;-73
2023/03/31 07:36:03;;;;;;;;;;;;;;;10.26;81.30;99882.44;4958132;28;19958;-73
2023/03/31 07:38:28;;;;;;;;;;;;;;;10.13;82.56;99879.34;4960366;28;19934;-73
2023/03/31 07:40:54;;;;;;;;;;;;;;;10.01;83.31;99881.63;4964520;28;20019;-75
2023/03/31 07:43:20;;;;;;;;;;;;;;;10.01;83.84;99881.63;4964610;28;19935;-74
2023/03/31 07:45:45;;;;;;;;;;;;;;;9.85;84.25;99874.88;4949418;28;19938;-73
2023/03/31 07:48:10;;;;;;;;;;;;;;;9.79;84.74;99873.34;4944995;28;20388;-73
2023/03/31 07:50:36;;;;;;;;;;;;;;;9.89;83.98;99873.25;4945150;28;19965;-73
2023/03/31 07:53:05;;;;;;;;;;;;;;;9.87;83.85;99872.72;4949116;28;19936;-74
2023/03/31 07:55:31;;;;;;;;;;;;;;;9.98;83.49;99871.53;4948983;28;19967;-73
2023/03/31 07:57:56;;;;;;;;;;;;;;;9.90;83.15;99853.44;4962112;28;20006;-73
2023/03/31 08:00:22;;;;;;;;;;;;;;;9.89;83.17;99862.53;4941912;28;19956;-75
2023/03/31 08:02:48;;;;;;;;;;;;;;;9.92;83.41;99856.63;4941415;28;19992;-74
2023/03/31 08:05:14;;;;;;;;;;;;;;;9.81;84.39;99855.13;4956957;28;19933;-73
2023/03/31 08:07:41;;;;;;;;;;;;;;;9.89;84.98;99861.72;4962430;28;20441;-75
2023/03/31 08:10:08;;;;;;;;;;;;;;;9.76;84.62;99850.66;4965069;28;19968;-73
2023/03/31 08:12:36;;;;;;;;;;;;;;;9.68;85.75;99850.47;4983755;28;19945;-72
2023/03/31 08:15:02;;;;;;;;;;;;;;;9.80;86.01;99848.19;4941852;28;19934;-73
2023/03/31 08:17:27;;;;;;;;;;;;;;;9.80;85.70;99850.88;4977320;28;19944;-76
2023/03/31 08:19:53;;;;;;;;;;;;;;;9.79;86.53;99842.06;4941598;28;20007;-76
2023/03/31 08:22:19;;;;;;;;;;;;;;;9.72;86.35;99844.28;4962421;28;19936;-74
2023/03/31 08:24:45;;;;;;;;;;;;;;;9.75;86.32;99840.22;4962085;28;19942;-73
2023/03/31 08:27:11;;;;;;;;;;;;;;;9.86;86.67;99839.03;4940150;28;19949;-74
2023/03/31 08:29:36;;;;;;;;;;;;;;;9.81;87.07;99837.22;4947239;28;20417;-75
2023/03/31 08:32:02;;;;;;;;;;;;;;;9.78;86.93;99835.13;4937445;28;20608;-73
2023/03/31 08:34:27;;;;;;;;;;;;;;;9.90;86.69;99833.91;4977979;28;19992;-75
2023/03/31 08:36:54;;;;;;;;;;;;;;;9.90;87.09;99832.03;4951126;28;19955;-74
2023/03/31 08:39:20;;;;;;;;;;;;;;;9.90;86.43;99833.91;4943830;28;20417;-75
2023/03/31 08:42:03;;;;;;;;;;;;;;;9.81;87.03;99828.41;4939053;28;19938;-72
2023/03/31 08:44:41;;;;;;;;;;;;;;;9.77;87.63;99827.38;4940437;28;19979;-73
2023/03/31 08:47:12;;;;;;;;;;;;;;;9.80;87.38;99821.47;4957237;28;19937;-73
2023/03/31 08:49:46;;;;;;;;;;;;;;;9.80;86.93;99821.47;4959743;28;19983;-74
2023/03/31 08:52:14;;;;;;;;;;;;;;;9.69;87.18;99810.09;4980286;28;19947;-72
2023/03/31 08:54:46;;;;;;;;;;;;;;;9.66;87.61;99810.66;4959006;28;19935;-73
2023/03/31 08:57:14;;;;;;;;;;;;;;;9.74;87.69;99801.22;4960600;28;20437;-73
2023/03/31 08:59:42;;;;;;;;;;;;;;;9.77;88.11;99808.69;4982157;28;19956;-73
2023/03/31 09:02:20;;;;;;;;;;;;;;;9.64;88.10;99801.34;4959495;28;20122;-73
2023/03/31 09:04:55;;;;;;;;;;;;;;;9.71;87.98;99793.78;4944928;28;20031;-71
2023/03/31 09:07:39;;;;;;;;;;;;;;;9.76;87.68;99796.41;4959075;28;19996;-72
2023/03/31 09:10:05;;;;;;;;;;;;;;;9.77;87.65;99790.75;4957043;28;19966;-72
2023/03/31 09:12:33;;;;;;;;;;;;;;;9.79;87.81;99783.22;4962355;28;19942;-73
2023/03/31 09:15:00;;;;;;;;;;;;;;;9.82;88.01;99789.88;4955929;28;19936;-72
2023/03/31 09:17:40;;;;;;;;;;;;;;;9.87;88.18;99781.78;4955247;28;19938;-72
2023/03/31 09:20:12;;;;;;;;;;;;;;;9.89;87.43;99776.97;4957661;28;20098;-72
2023/03/31 09:22:47;;;;;;;;;;;;;;;9.95;87.81;99781.13;4977051;28;20069;-73
2023/03/31 09:25:18;;;;;;;;;;;;;;;9.90;88.03;99773.22;4942374;28;20023;-71
2023/03/31 09:27:46;;;;;;;;;;;;;;;9.93;87.97;99772.63;4964857;28;20691;-73
2023/03/31 09:30:14;;;;;;;;;;;;;;;9.93;88.15;99761.91;4961113;28;20043;-73
2023/03/31 09:32:40;;;;;;;;;;;;;;;9.98;88.25;99771.75;4964242;28;19939;-72
2023/03/31 09:35:21;;;;;;;;;;;;;;;9.96;87.91;99765.91;4945726;28;19952;-72
2023/03/31 09:37:48;;;;;;;;;;;;;;;10.09;87.85;99760.63;4951101;28;19984;-73
2023/03/31 09:40:15;;;;;;;;;;;;;;;10.15;87.51;99749.84;4960232;28;20597;-73
2023/03/31 09:42:41;;;;;;;;;;;;;;;10.02;87.35;99752.16;4943779;28;19939;-75
2023/03/31 09:45:13;;;;;;;;;;;;;;;10.07;87.32;99749.41;4955494;28;19937;-71
2023/03/31 09:47:41;;;;;;;;;;;;;;;10.11;87.18;99746.97;4960337;28;20011;-72
2023/03/31 09:50:08;;;;;;;;;;;;;;;10.21;86.88;99740.66;4942439;28;19959;-72
2023/03/31 09:52:35;;;;;;;;;;;;;;;10.23;87.51;99741.16;4942809;28;19939;-72
2023/03/31 09:55:02;;;;;;;;;;;;;;;10.39;87.27;99737.19;4945914;28;19936;-73
2023/03/31 09:57:30;;;;;;;;;;;;;;;10.59;86.71;99728.03;4928397;28;19932;-72
2023/03/31 10:00:13;;;;;;;;;;;;;;;10.48;86.47;99724.72;4953412;28;19946;-72
2023/03/31 10:02:50;;;;;;;;;;;;;;;10.48;86.71;99731.94;4954553;28;19973;-73
2023/03/31 10:05:25;;;;;;;;;;;;;;;10.50;86.74;99725.25;4953553;28;20413;-72
2023/03/31 10:08:10;;;;;;;;;;;;;;;10.41;86.91;99724.31;4955957;28;20657;-74
2023/03/31 10:10:36;;;;;;;;;;;;;;;10.46;86.11;99720.75;4958878;28;19986;-73
2023/03/31 10:13:06;;;;;;;;;;;;;;;10.35;86.43;99710.19;4936443;28;19933;-74
2023/03/31 10:15:35;;;;;;;;;;;;;;;10.48;87.34;99719.38;4955995;28;20464;-72
2023/03/31 10:18:01;;;;;;;;;;;;;;;10.55;86.24;99714.41;4963359;28;20013;-72
2023/03/31 10:20:31;;;;;;;;;;;;;;;10.78;85.20;99712.69;4957955;28;19965;-73
2023/03/31 10:23:00;;;;;;;;;;;;;;;11.00;85.08;99703.19;4956009;28;19951;-73
2023/03/31 10:25:27;;;;;;;;;;;;;;;10.99;83.81;99705.06;4954615;28;19940;-72
2023/03/31 10:27:54;;;;;;;;;;;;;;;10.94;84.10;99708.63;4943670;28;20390;-75
2023/03/31 10:30:22;;;;;;;;;;;;;;;10.97;84.54;99703.75;4961921;28;19950;-72
2023/03/31 10:32:48;;;;;;;;;;;;;;;10.84;84.90;99691.97;4956502;28;20012;-72
2023/03/31 10:35:30;;;;;;;;;;;;;;;10.62;85.42;99697.97;4957516;28;20057;-73
2023/03/31 10:37:57;;;;;;;;;;;;;;;10.58;86.04;99694.31;4955431;28;19931;-74
2023/03/31 10:40:24;;;;;;;;;;;;;;;10.55;86.08;99686.84;4955187;28;20455;-73
2023/03/31 10:43:00;;;;;;;;;;;;;;;10.68;86.15;99687.97;4946240;28;19977;-73
2023/03/31 10:45:27;;;;;;;;;;;;;;;10.76;86.44;99689.97;4944437;28;19941;-72
2023/03/31 10:47:56;;;;;;;;;;;;;;;10.58;85.79;99684.41;4961333;28;20033;-73
2023/03/31 10:50:29;;;;;;;;;;;;;;;10.33;85.43;99688.31;4956857;28;19970;-73
2023/03/31 10:53:00;;;;;;;;;;;;;;;10.56;85.80;99675.84;4962529;28;20052;-73
2023/03/31 10:55:31;;;;;;;;;;;;;;;10.52;85.35;99672.19;4964915;28;19956;-72
2023/03/31 10:57:59;;;;;;;;;;;;;;;10.63;86.03;99668.25;4962123;28;19940;-73
2023/03/31 11:00:40;;;;;;;;;;;;;;;10.77;84.60;99676.31;4947224;28;19966;-72
2023/03/31 11:03:06;;;;;;;;;;;;;;;10.78;84.60;99663.69;4954951;28;19934;-72
2023/03/31 11:05:45;;;;;;;;;;;;;;;10.81;86.52;99657.75;4959881;28;19958;-72
2023/03/31 11:08:10;;;;;;;;;;;;;;;10.69;85.76;99657.44;4959632;28;20271;-72
2023/03/31 11:10:36;;;;;;;;;;;;;;;10.59;85.58;99659.22;4961295;28;19958;-72
2023/03/31 11:13:05;;;;;;;;;;;;;;;10.54;86.00;99653.94;4939245;28;20302;-73
2023/03/31 11:15:41;;;;;;;;;;;;;;;10.56;86.60;99659.00;4937203;28;19958;-72
2023/03/31 11:18:16;;;;;;;;;;;;;;;10.55;85.54;99655.53;4957843;28;19939;-71
2023/03/31 11:20:50;;;;;;;;;;;;;;;10.43;84.82;99646.38;4950187;28;19958;-72
2023/03/31 11:23:35;;;;;;;;;;;;;;;10.44;85.82;99643.44;4946280;28;20355;-72
2023/03/31 11:26:09;;;;;;;;;;;;;;;10.57;85.88;99648.00;4934432;28;20189;-72
2023/03/31 11:28:54;;;;;;;;;;;;;;;10.60;86.83;99642.06;4963588;28;19932;-73
2023/03/31 11:31:27;;;;;;;;;;;;;;;10.63;86.65;99636.13;4960721;28;19948;-72
2023/03/31 11:33:59;;;;;;;;;;;;;;;10.56;86.52;99635.69;4964824;28;20301;-72
2023/03/31 11:36:44;;;;;;;;;;;;;;;10.44;86.46;99637.28;4965625;28;20427;-72
2023/03/31 11:39:10;;;;;;;;;;;;;;;10.23;87.15;99632.28;4961978;28;19942;-72
2023/03/31 11:41:42;;;;;;;;;;;;;;;10.13;87.97;99633.22;4964670;28;19950;-72
2023/03/31 11:44:11;;;;;;;;;;;;;;;10.10;88.36;99625.78;4958165;28;20022;-70
2023/03/31 11:46:42;;;;;;;;;;;;;;;10.04;88.74;99616.25;4967534;28;20395;-71
2023/03/31 11:49:16;;;;;;;;;;;;;;;10.05;88.37;99625.88;4963107;28;19937;-72
2023/03/31 11:51:54;;;;;;;;;;;;;;;9.94;88.26;99623.63;4960272;28;19989;-71
2023/03/31 11:54:41;;;;;;;;;;;;;;;9.91;88.90;99618.88;4961831;28;20386;-74
2023/03/31 11:57:26;;;;;;;;;;;;;;;9.88;89.08;99620.25;4962703;28;19961;-73
2023/03/31 11:59:58;;;;;;;;;;;;;;;9.91;88.72;99611.66;4922427;28;20035;-72
2023/03/31 12:02:44;;;;;;;;;;;;;;;9.90;89.46;99618.09;4949161;28;19986;-73
2023/03/31 12:05:11;;;;;;;;;;;;;;;9.92;89.13;99607.09;4927127;28;19972;-72
2023/03/31 12:07:40;;;;;;;;;;;;;;;9.87;89.46;99613.31;4959969;28;19959;-73
2023/03/31 12:10:16;;;;;;;;;;;;;;;9.83;89.33;99612.31;4965925;28;20450;-73
2023/03/31 12:12:45;;;;;;;;;;;;;;;9.89;89.27;99610.34;4967010;28;19974;-72
2023/03/31 12:15:17;;;;;;;;;;;;;;;9.84;89.96;99608.56;4946673;28;20371;-73
2023/03/31 12:17:46;;;;;;;;;;;;;;;9.89;89.96;99589.78;4949489;28;20390;-74
2023/03/31 12:20:28;;;;;;;;;;;;;;;9.85;89.44;99600.25;4957752;28;20424;-75
2023/03/31 12:22:54;;;;;;;;;;;;;;;9.76;89.88;99604.69;4927894;29;20293;-73
2023/03/31 12:25:21;;;;;;;;;;;;;;;9.74;90.19;99585.44;4963585;28;20303;-72
2023/03/31 12:27:53;;;;;;;;;;;;;;;9.76;90.29;99598.53;4983126;28;20023;-71
2023/03/31 12:30:19;;;;;;;;;;;;;;;9.82;90.71;99586.66;4948481;28;20043;-72
2023/03/31 12:32:52;;;;;;;;;;;;;;;9.79;90.35;99585.38;4961873;28;20775;-72
2023/03/31 12:35:46;;;;;;;;;;;;;;;9.71;90.58;99587.91;4962699;28;20309;-72
2023/03/31 12:38:24;;;;;;;;;;;;;;;9.72;90.60;99584.94;4962163;28;19950;-72
2023/03/31 12:40:59;;;;;;;;;;;;;;;9.73;90.31;99585.72;4952213;28;19951;-71
2023/03/31 12:43:43;;;;;;;;;;;;;;;9.78;90.15;99569.63;4955071;28;19981;-72
2023/03/31 12:46:34;;;;;;;;;;;;;;;9.81;89.66;99569.03;4951566;28;20398;-72
2023/03/31 12:49:24;;;;;;;;;;;;;;;9.82;89.91;99562.56;4929832;28;20017;-71
2023/03/31 12:52:10;;;;;;;;;;;;;;;9.92;89.73;99557.06;4938468;28;19949;-72
2023/03/31 12:54:45;;;;;;;;;;;;;;;10.18;89.57;99556.63;4958794;28;20429;-72
2023/03/31 12:57:10;;;;;;;;;;;;;;;10.38;89.11;99556.28;4960157;28;19953;-71
2023/03/31 12:59:40;;;;;;;;;;;;;;;10.38;88.16;99553.63;4958998;28;20115;-72
2023/03/31 13:02:08;;;;;;;;;;;;;;;10.48;87.81;99557.97;4955571;28;19929;-74